
Distance (Route):
Temperature : 11.7°C
Humidity : 26.9%
Pressure : 0hPa| Receiver | Date | Latitude | Longitude | Direction | Speed | Altitude | Climb | Temperature | Humidity | Pressure | Voltage | Killtimer | Uptime | BKT | XDATA |
|---|---|---|---|---|---|---|---|---|---|---|---|---|---|---|---|
| LZ4TU-5 | 2026-09-03 06:53:46 | 44.17551 | 23.08329 | 106° | 22km/h | 2228m | -14.6m/s | 11.7°C | 26.9% | 0hPa | 0V | 00:00:00 | 00:00:00 | 00:00:00 | |
| LZ4TU-5 | 2026-09-03 06:53:41 | 44.17559 | 23.08291 | 103° | 22km/h | 2303m | -14.8m/s | 11.0°C | 30.6% | 0hPa | 0V | 00:00:00 | 00:00:00 | 00:00:00 | |
| LZ4TU-5 | 2026-09-03 06:53:37 | 44.17562 | 23.08260 | 99° | 22km/h | 2364m | -14.5m/s | 10.5°C | 0% | 0hPa | 0V | 00:00:00 | 00:00:00 | 00:00:00 | |
| LZ4TU-5 | 2026-09-03 06:53:32 | 44.17564 | 23.08224 | 95° | 20km/h | 2440m | -14.5m/s | 10.0°C | 31.3% | 0hPa | 0V | 00:00:00 | 00:00:00 | 00:00:00 | |
| LZ4TU-5 | 2026-09-03 06:53:27 | 44.17566 | 23.08190 | 92° | 20km/h | 2503m | -14.6m/s | 9.6°C | 28.6% | 0hPa | 0V | 00:00:00 | 00:00:00 | 00:00:00 | |
| LZ4TU-5 | 2026-09-03 06:53:23 | 44.17567 | 23.08159 | 96° | 22km/h | 2561m | -14.6m/s | 9.3°C | 34.6% | 0hPa | 0V | 00:00:00 | 00:00:00 | 00:00:00 | |
| LZ4TU-5 | 2026-09-03 06:53:18 | 44.17571 | 23.08119 | 101° | 24km/h | 2632m | -14.3m/s | 8.8°C | 39.6% | 0hPa | 0V | 00:00:00 | 00:00:00 | 00:00:00 | |
| LZ4TU-5 | 2026-09-03 06:53:14 | 44.17576 | 23.08084 | 105° | 24km/h | 2683m | -14.9m/s | 8.4°C | 35.3% | 0hPa | 0V | 00:00:00 | 00:00:00 | 00:00:00 | |
| LZ4TU-5 | 2026-09-03 06:53:09 | 44.17584 | 23.08043 | 111° | 24km/h | 2758m | -14.8m/s | 8.0°C | 27.3% | 0hPa | 0V | 00:00:00 | 00:00:00 | 00:00:00 | |
| LZ4TU-5 | 2026-09-03 06:53:04 | 44.17596 | 23.08003 | 113° | 26km/h | 2834m | -14.7m/s | 7.4°C | 24.8% | 0hPa | 0V | 00:00:00 | 00:00:00 | 00:00:00 | |
| LZ4TU-5 | 2026-09-03 06:53:00 | 44.17605 | 23.07970 | 113° | 26km/h | 2894m | -14.9m/s | 6.9°C | 25.9% | 0hPa | 0V | 00:00:00 | 00:00:00 | 00:00:00 | |
| LZ4TU-5 | 2026-09-03 06:52:56 | 44.17615 | 23.07936 | 114° | 26km/h | 2954m | -14.8m/s | 6.4°C | 27.4% | 0hPa | 0V | 00:00:00 | 00:00:00 | 00:00:00 | |
| LZ4TU-5 | 2026-09-03 06:52:51 | 44.17628 | 23.07892 | 114° | 27km/h | 3025m | -15.4m/s | 5.7°C | 35.5% | 0hPa | 0V | 00:00:00 | 00:00:00 | 00:00:00 | |
| LZ4TU-5 | 2026-09-03 06:52:46 | 44.17640 | 23.07848 | 115° | 26km/h | 3092m | -15.4m/s | 5.4°C | 23.9% | 0hPa | 0V | 00:00:00 | 00:00:00 | 00:00:00 | |
| LZ4TU-5 | 2026-09-03 06:52:41 | 44.17655 | 23.07806 | 119° | 27km/h | 3169m | -15.4m/s | 4.7°C | 34.2% | 0hPa | 0V | 00:00:00 | 00:00:00 | 00:00:00 | |
| LZ4TU-5 | 2026-09-03 06:52:36 | 44.17673 | 23.07765 | 122° | 27km/h | 3244m | -15.1m/s | 4.0°C | 41.9% | 0hPa | 0V | 00:00:00 | 00:00:00 | 00:00:00 | |
| LZ4TU-5 | 2026-09-03 06:52:32 | 44.17688 | 23.07732 | 125° | 26km/h | 3302m | -15.9m/s | 3.4°C | 41.6% | 0hPa | 0V | 00:00:00 | 00:00:00 | 00:00:00 | |
| LZ4TU-5 | 2026-09-03 06:52:27 | 44.17708 | 23.07697 | 128° | 22km/h | 3370m | -15.2m/s | 2.8°C | 42.1% | 0hPa | 0V | 00:00:00 | 00:00:00 | 00:00:00 | |
| LZ4TU-5 | 2026-09-03 06:52:22 | 44.17725 | 23.07669 | 129° | 18km/h | 3450m | -15.9m/s | 2.2°C | 38.0% | 0hPa | 0V | 00:00:00 | 00:00:00 | 00:00:00 | |
| LZ4TU-5 | 2026-09-03 06:52:17 | 44.17741 | 23.07646 | 125° | 16km/h | 3532m | -15.2m/s | 1.8°C | 23.5% | 0hPa | 0V | 00:00:00 | 00:00:00 | 00:00:00 | |
| LZ4TU-5 | 2026-09-03 06:52:13 | 44.17751 | 23.07627 | 122° | 16km/h | 3597m | -15.9m/s | 1.5°C | 22.4% | 0hPa | 0V | 00:00:00 | 00:00:00 | 00:00:00 | |
| LZ4TU-5 | 2026-09-03 06:52:08 | 44.17764 | 23.07602 | 128° | 18km/h | 3680m | -15.6m/s | 0.9°C | 37.0% | 0hPa | 0V | 00:00:00 | 00:00:00 | 00:00:00 | |
| LZ4TU-5 | 2026-09-03 06:48:16 | 44.18578 | 23.05666 | 113° | 27km/h | 7427m | -17.0m/s | -25.2°C | 26.7% | 0hPa | 0V | 00:00:00 | 00:00:00 | 00:00:00 | |
| LZ4TU-5 | 2026-09-03 06:48:11 | 44.18591 | 23.05619 | 110° | 27km/h | 7511m | -17.5m/s | -25.6°C | 23.8% | 0hPa | 0V | 00:00:00 | 00:00:00 | 00:00:00 | |
| LZ4TU-5 | 2026-09-03 06:41:03 | 44.18725 | 22.97647 | 91° | 44km/h | 17507m | -34.8m/s | -56.4°C | 0.0% | 0hPa | 0V | 00:00:00 | 00:00:00 | 00:00:00 | |
| LZ4TU-5 | 2026-09-03 06:40:58 | 44.18725 | 22.97559 | 92° | 57km/h | 17685m | -35.1m/s | -56.5°C | 0% | 0hPa | 0V | 00:00:00 | 00:00:00 | 00:00:00 | |
| LZ4TU-5 | 2026-09-03 06:37:43 | 44.18908 | 22.97099 | 357° | 15km/h | 27123m | -66.2m/s | -46.0°C | 0.0% | 0hPa | 0V | 00:00:00 | 00:00:00 | 00:00:00 | |
| LZ4TU-5 | 2026-09-03 06:37:38 | 44.18893 | 22.97095 | 17° | 9km/h | 27459m | -67.0m/s | -45.7°C | 0.0% | 0hPa | 0V | 00:00:00 | 00:00:00 | 00:00:00 | |
| OM5KV | 2026-09-03 06:35:56 | 44.18637 | 22.97321 | 272° | 4km/h | 29855m | 7.9m/s | -40.8°C | 0.0% | 0hPa | 0V | 00:00:00 | 00:00:00 | 00:00:00 | |
| OM5KV | 2026-09-03 06:35:49 | 44.18660 | 22.97352 | 154° | 22km/h | 29805m | 6.0m/s | -40.8°C | 0.0% | 0hPa | 0V | 00:00:00 | 00:00:00 | 00:00:00 | |
| OM5KV | 2026-09-03 06:35:48 | 44.18664 | 22.97349 | 157° | 18km/h | 29798m | 6.8m/s | -40.7°C | 0.0% | 0hPa | 0V | 00:00:00 | 00:00:00 | 00:00:00 | |
| OM5KV | 2026-09-03 06:35:22 | 44.18722 | 22.97367 | 158° | 9km/h | 29615m | 6.5m/s | -41.6°C | 0.0% | 0hPa | 0V | 00:00:00 | 00:00:00 | 00:00:00 | |
| OM5KV | 2026-09-03 06:35:17 | 44.18729 | 22.97375 | 269° | 7km/h | 29579m | 6.5m/s | -41.7°C | 0.0% | 0hPa | 0V | 00:00:00 | 00:00:00 | 00:00:00 | |
| OM5KV | 2026-09-03 06:35:10 | 44.18727 | 22.97334 | 126° | 5km/h | 29532m | 8.9m/s | -41.7°C | 0.0% | 0hPa | 0V | 00:00:00 | 00:00:00 | 00:00:00 | |
| OM5KV | 2026-09-03 06:35:02 | 44.18699 | 22.97325 | 111° | 27km/h | 29473m | 6.9m/s | -41.8°C | 0.0% | 0hPa | 0V | 00:00:00 | 00:00:00 | 00:00:00 | |
| OM5KV | 2026-09-03 06:34:54 | 44.18679 | 22.97308 | 55° | 13km/h | 29412m | 7.7m/s | -42.3°C | 0.0% | 0hPa | 0V | 00:00:00 | 00:00:00 | 00:00:00 | |
| OM5KV | 2026-09-03 06:34:48 | 44.18689 | 22.97296 | 264° | 11km/h | 29381m | 4.6m/s | -42.6°C | 0.0% | 0hPa | 0V | 00:00:00 | 00:00:00 | 00:00:00 | |
| OM5KV | 2026-09-03 06:34:43 | 44.18673 | 22.97283 | 66° | 24km/h | 29346m | 7.5m/s | -42.9°C | 0.0% | 0hPa | 0V | 00:00:00 | 00:00:00 | 00:00:00 | |
| OM5KV | 2026-09-03 06:34:42 | 44.18671 | 22.97276 | 66° | 16km/h | 29337m | 9.0m/s | -42.9°C | 0.0% | 0hPa | 0V | 00:00:00 | 00:00:00 | 00:00:00 | |
| OM5KV | 2026-09-03 06:34:38 | 44.18675 | 22.97271 | 183° | 9km/h | 29304m | 9.2m/s | -43.1°C | 0.0% | 0hPa | 0V | 00:00:00 | 00:00:00 | 00:00:00 | |
| OM5KV | 2026-09-03 06:34:35 | 44.18677 | 22.97269 | 60° | 5km/h | 29293m | 6.1m/s | -43.1°C | 0.0% | 0hPa | 0V | 00:00:00 | 00:00:00 | 00:00:00 | |
| OM5KV | 2026-09-03 06:34:30 | 44.18667 | 22.97252 | 77° | 18km/h | 29256m | 5.9m/s | -43.0°C | 0.0% | 0hPa | 0V | 00:00:00 | 00:00:00 | 00:00:00 | |
| OM5KV | 2026-09-03 06:34:23 | 44.18664 | 22.97231 | 39° | 29km/h | 29199m | 7.1m/s | -43.0°C | 0.0% | 0hPa | 0V | 00:00:00 | 00:00:00 | 00:00:00 | |
| OM5KV | 2026-09-03 06:34:22 | 44.18664 | 22.97231 | 39° | 29km/h | 29199m | 7.1m/s | -43.0°C | 0.0% | 0hPa | 0V | 00:00:00 | 00:00:00 | 00:00:00 | |
| OM5KV | 2026-09-03 06:32:09 | 44.18467 | 22.96980 | 76° | 18km/h | 28262m | 6.8m/s | -45.0°C | 0.0% | 0hPa | 0V | 00:00:00 | 00:00:00 | 00:00:00 | |
| OM5KV | 2026-09-03 06:32:03 | 44.18439 | 22.96979 | 328° | 15km/h | 28223m | 9.0m/s | -45.2°C | 0.0% | 0hPa | 0V | 00:00:00 | 00:00:00 | 00:00:00 | |
| OM5KV | 2026-09-03 06:31:00 | 44.18147 | 22.96819 | 303° | 20km/h | 27761m | 6.4m/s | -44.7°C | 0.0% | 0hPa | 0V | 00:00:00 | 00:00:00 | 00:00:00 | |
| OM5KV | 2026-09-03 06:30:54 | 44.18133 | 22.96831 | 56° | 20km/h | 27716m | 10.4m/s | -45.1°C | 0.0% | 0hPa | 0V | 00:00:00 | 00:00:00 | 00:00:00 | |
| OM5KV | 2026-09-03 06:27:49 | 44.17699 | 22.97440 | 286° | 22km/h | 26424m | 7.0m/s | -47.8°C | 0.0% | 0hPa | 0V | 00:00:00 | 00:00:00 | 00:00:00 | |
| OM5KV | 2026-09-03 06:27:39 | 44.17712 | 22.97509 | 178° | 18km/h | 26355m | 7.1m/s | -48.2°C | 0.0% | 0hPa | 0V | 00:00:00 | 00:00:00 | 00:00:00 | |
| OM5KV | 2026-09-03 06:27:31 | 44.17728 | 22.97565 | 232° | 22km/h | 26303m | 5.2m/s | -48.3°C | 0.0% | 0hPa | 0V | 00:00:00 | 00:00:00 | 00:00:00 | |
| OM5KV | 2026-09-03 06:27:27 | 44.17741 | 22.97591 | 249° | 16km/h | 26279m | 6.3m/s | -48.4°C | 0.0% | 0hPa | 0V | 00:00:00 | 00:00:00 | 00:00:00 | |
| OM5KV | 2026-09-03 06:27:14 | 44.17778 | 22.97667 | 204° | 24km/h | 26196m | 6.4m/s | -48.4°C | 0.0% | 0hPa | 0V | 00:00:00 | 00:00:00 | 00:00:00 | |
| OM5KV | 2026-09-03 06:27:11 | 44.17795 | 22.97684 | 236° | 24km/h | 26176m | 8.1m/s | -48.5°C | 0.0% | 0hPa | 0V | 00:00:00 | 00:00:00 | 00:00:00 | |
| OM5KV | 2026-09-03 06:27:09 | 44.17799 | 22.97700 | 259° | 26km/h | 26162m | 6.3m/s | -48.6°C | 0.0% | 0hPa | 0V | 00:00:00 | 00:00:00 | 00:00:00 | |
| OM5KV | 2026-09-03 06:27:01 | 44.17819 | 22.97731 | 188° | 24km/h | 26109m | 6.8m/s | -48.8°C | 0.0% | 0hPa | 0V | 00:00:00 | 00:00:00 | 00:00:00 | |
| OM5KV | 2026-09-03 06:26:44 | 44.17887 | 22.97744 | 178° | 18km/h | 25994m | 6.3m/s | -49.3°C | 0.0% | 0hPa | 0V | 00:00:00 | 00:00:00 | 00:00:00 | |
| OM5KV | 2026-09-03 06:26:40 | 44.17899 | 22.97745 | 149° | 9km/h | 25970m | 3.6m/s | -49.3°C | 0.0% | 0hPa | 0V | 00:00:00 | 00:00:00 | 00:00:00 | |
| OM5KV | 2026-09-03 06:21:27 | 44.18426 | 22.98280 | 153° | 9km/h | 23899m | 5.1m/s | -53.0°C | 0.0% | 0hPa | 0V | 00:00:00 | 00:00:00 | 00:00:00 | |
| OM5KV | 2026-09-03 06:21:22 | 44.18437 | 22.98279 | 220° | 18km/h | 23865m | 8.6m/s | -52.9°C | 0.0% | 0hPa | 0V | 00:00:00 | 00:00:00 | 00:00:00 | |
| OM5KV | 2026-09-03 06:21:14 | 44.18457 | 22.98292 | 137° | 18km/h | 23814m | 6.0m/s | -52.8°C | 0.0% | 0hPa | 0V | 00:00:00 | 00:00:00 | 00:00:00 | |
| OM5KV | 2026-09-03 06:21:05 | 44.18477 | 22.98304 | 164° | 18km/h | 23756m | 5.0m/s | -52.9°C | 0.0% | 0hPa | 0V | 00:00:00 | 00:00:00 | 00:00:00 | |
| OM5KV | 2026-09-03 06:21:03 | 44.18486 | 22.98298 | 142° | 20km/h | 23742m | 5.9m/s | -52.8°C | 0.0% | 0hPa | 0V | 00:00:00 | 00:00:00 | 00:00:00 | |
| OM5KV | 2026-09-03 06:21:00 | 44.18496 | 22.98290 | 179° | 13km/h | 23723m | 4.2m/s | -52.9°C | 0.0% | 0hPa | 0V | 00:00:00 | 00:00:00 | 00:00:00 | |
| OM5KV | 2026-09-03 06:20:33 | 44.18539 | 22.98307 | 60° | 5km/h | 23544m | 5.4m/s | -53.2°C | 0.0% | 0hPa | 0V | 00:00:00 | 00:00:00 | 00:00:00 | |
| OM5KV | 2026-09-03 06:20:18 | 44.18543 | 22.98347 | 265° | 5km/h | 23442m | 8.5m/s | -53.1°C | 0.0% | 0hPa | 0V | 00:00:00 | 00:00:00 | 00:00:00 | |
| OM5KV | 2026-09-03 06:20:12 | 44.18538 | 22.98387 | 276° | 24km/h | 23399m | 7.9m/s | -53.0°C | 0.0% | 0hPa | 0V | 00:00:00 | 00:00:00 | 00:00:00 | |
| OM5KV | 2026-09-03 06:20:05 | 44.18543 | 22.98423 | 276° | 11km/h | 23355m | 8.1m/s | -52.9°C | 0.0% | 0hPa | 0V | 00:00:00 | 00:00:00 | 00:00:00 | |
| LZ4TU-5 | 2026-09-03 06:17:08 | 44.18756 | 22.98807 | 235° | 11km/h | 22232m | 8.0m/s | -52.8°C | 0.0% | 0hPa | 0V | 00:00:00 | 00:00:00 | 00:00:00 | |
| LZ4TU-5 | 2026-09-03 06:17:04 | 44.18769 | 22.98817 | 178° | 20km/h | 22208m | 6.2m/s | -52.8°C | 0.0% | 0hPa | 0V | 00:00:00 | 00:00:00 | 00:00:00 | |
| LZ4TU-5 | 2026-09-03 06:16:59 | 44.18799 | 22.98826 | 208° | 26km/h | 22175m | 8.9m/s | -52.9°C | 0.0% | 0hPa | 0V | 00:00:00 | 00:00:00 | 00:00:00 | |
| LZ4TU-5 | 2026-09-03 06:16:54 | 44.18829 | 22.98845 | 188° | 24km/h | 22145m | 7.9m/s | -53.0°C | 0.0% | 0hPa | 0V | 00:00:00 | 00:00:00 | 00:00:00 | |
| LZ4TU-5 | 2026-09-03 06:15:31 | 44.19016 | 22.98624 | 195° | 5km/h | 21628m | 5.0m/s | -55.2°C | 0.0% | 0hPa | 0V | 00:00:00 | 00:00:00 | 00:00:00 | |
| LZ4TU-5 | 2026-09-03 06:15:26 | 44.19016 | 22.98609 | 39° | 15km/h | 21596m | 7.3m/s | -55.1°C | 0.0% | 0hPa | 0V | 00:00:00 | 00:00:00 | 00:00:00 | |
| LZ4TU-5 | 2026-09-03 06:15:22 | 44.19007 | 22.98611 | 191° | 7km/h | 21567m | 5.1m/s | -55.4°C | 0.0% | 0hPa | 0V | 00:00:00 | 00:00:00 | 00:00:00 | |
| LZ4TU-5 | 2026-09-03 06:15:17 | 44.19015 | 22.98616 | 213° | 9km/h | 21543m | 2.7m/s | -55.5°C | 0.0% | 0hPa | 0V | 00:00:00 | 00:00:00 | 00:00:00 | |
| LZ4TU-5 | 2026-09-03 06:13:44 | 44.19060 | 22.98264 | 175° | 9km/h | 20951m | 6.6m/s | -55.3°C | 0.0% | 0hPa | 0V | 00:00:00 | 00:00:00 | 00:00:00 | |
| LZ4TU-5 | 2026-09-03 06:13:40 | 44.19065 | 22.98278 | 284° | 13km/h | 20930m | 3.8m/s | -55.3°C | 0.0% | 0hPa | 0V | 00:00:00 | 00:00:00 | 00:00:00 | |
| LZ4TU-5 | 2026-09-03 06:13:35 | 44.19063 | 22.98262 | 89° | 16km/h | 20896m | 6.3m/s | -55.2°C | 0.0% | 0hPa | 0V | 00:00:00 | 00:00:00 | 00:00:00 | |
| LZ4TU-5 | 2026-09-03 06:13:30 | 44.19067 | 22.98250 | 103° | 7km/h | 20868m | 5.0m/s | -55.2°C | 0% | 0hPa | 0V | 00:00:00 | 00:00:00 | 00:00:00 | |
| LZ4TU-5 | 2026-09-03 06:11:56 | 44.18971 | 22.98020 | 83° | 18km/h | 20279m | 6.4m/s | -55.2°C | 0.0% | 0hPa | 0V | 00:00:00 | 00:00:00 | 00:00:00 | |
| LZ4TU-5 | 2026-09-03 06:11:51 | 44.18986 | 22.97995 | 138° | 24km/h | 20248m | 7.2m/s | -55.4°C | 0.0% | 0hPa | 0V | 00:00:00 | 00:00:00 | 00:00:00 | |
| LZ4TU-5 | 2026-09-03 06:11:46 | 44.18983 | 22.97956 | 63° | 16km/h | 20214m | 8.1m/s | -55.4°C | 0.0% | 0hPa | 0V | 00:00:00 | 00:00:00 | 00:00:00 | |
| LZ4TU-5 | 2026-09-03 06:11:41 | 44.18986 | 22.97926 | 94° | 27km/h | 20181m | 9.4m/s | -55.3°C | 0.0% | 0hPa | 0V | 00:00:00 | 00:00:00 | 00:00:00 | |
| LZ4TU-5 | 2026-09-03 06:09:44 | 44.18747 | 22.97460 | 155° | 5km/h | 19460m | 6.3m/s | -56.4°C | 0.0% | 0hPa | 0V | 00:00:00 | 00:00:00 | 00:00:00 | |
| LZ4TU-5 | 2026-09-03 06:09:40 | 44.18750 | 22.97451 | 122° | 9km/h | 19440m | 4.0m/s | -56.3°C | 0.0% | 0hPa | 0V | 00:00:00 | 00:00:00 | 00:00:00 | |
| LZ4TU-5 | 2026-09-03 06:09:35 | 44.18763 | 22.97461 | 255° | 16km/h | 19408m | 6.3m/s | -56.1°C | 0.0% | 0hPa | 0V | 00:00:00 | 00:00:00 | 00:00:00 | |
| LZ4TU-5 | 2026-09-03 06:09:30 | 44.18768 | 22.97462 | 93° | 18km/h | 19376m | 5.4m/s | -56.0°C | 0.0% | 0hPa | 0V | 00:00:00 | 00:00:00 | 00:00:00 | |
| LZ4TU-5 | 2026-09-03 06:07:07 | 44.19090 | 22.96273 | 87° | 33km/h | 18496m | 5.1m/s | -56.6°C | 0.0% | 0hPa | 0V | 00:00:00 | 00:00:00 | 00:00:00 | |
| LZ4TU-5 | 2026-09-03 06:07:02 | 44.19077 | 22.96236 | 94° | 24km/h | 18463m | 4.0m/s | -56.5°C | 0.0% | 0hPa | 0V | 00:00:00 | 00:00:00 | 00:00:00 | |
| LZ4TU-5 | 2026-09-03 06:06:57 | 44.19085 | 22.96192 | 94° | 29km/h | 18429m | 6.1m/s | -56.3°C | 0.0% | 0hPa | 0V | 00:00:00 | 00:00:00 | 00:00:00 | |
| LZ4TU-5 | 2026-09-03 06:06:53 | 44.19087 | 22.96153 | 102° | 22km/h | 18402m | 5.1m/s | -56.2°C | 0% | 0hPa | 0V | 00:00:00 | 00:00:00 | 00:00:00 | |
| LZ4TU-5 | 2026-09-03 05:51:41 | 44.18842 | 22.78943 | 95° | 58km/h | 12958m | 5.0m/s | -50.7°C | 2.4% | 0hPa | 0V | 00:00:00 | 00:00:00 | 00:00:00 | |
| LZ4TU-5 | 2026-09-03 05:51:36 | 44.18868 | 22.78830 | 118° | 84km/h | 12927m | 4.4m/s | -50.7°C | 2.5% | 0hPa | 0V | 00:00:00 | 00:00:00 | 00:00:00 | |
| LZ4TU-5 | 2026-09-03 05:51:31 | 44.18910 | 22.78714 | 111° | 75km/h | 12892m | 7.5m/s | -51.2°C | 2.8% | 0hPa | 0V | 00:00:00 | 00:00:00 | 00:00:00 | |
| LZ4TU-5 | 2026-09-03 05:51:26 | 44.18939 | 22.78593 | 113° | 71km/h | 12860m | 6.9m/s | -51.1°C | 3.0% | 0hPa | 0V | 00:00:00 | 00:00:00 | 00:00:00 | |
| LZ4TU-5 | 2026-09-03 05:49:07 | 44.19066 | 22.74918 | 96° | 82km/h | 11995m | 8.3m/s | -51.2°C | 9.4% | 0hPa | 0V | 00:00:00 | 00:00:00 | 00:00:00 | |
| LZ4TU-5 | 2026-09-03 05:49:02 | 44.19064 | 22.74793 | 83° | 62km/h | 11961m | 6.6m/s | -51.3°C | 9.8% | 0hPa | 0V | 00:00:00 | 00:00:00 | 00:00:00 | |
| LZ4TU-5 | 2026-09-03 05:48:57 | 44.19053 | 22.74678 | 87° | 62km/h | 11931m | 5.6m/s | -51.2°C | 10.0% | 0hPa | 0V | 00:00:00 | 00:00:00 | 00:00:00 | |
| LZ4TU-5 | 2026-09-03 05:48:53 | 44.19044 | 22.74597 | 78° | 60km/h | 11908m | 4.3m/s | -51.1°C | 10.2% | 0hPa | 0V | 00:00:00 | 00:00:00 | 00:00:00 | |
| LZ4TU-5 | 2026-09-03 05:47:04 | 44.18961 | 22.72430 | 70° | 57km/h | 11241m | 5.6m/s | -51.1°C | 19.4% | 0hPa | 0V | 00:00:00 | 00:00:00 | 00:00:00 | |
| LZ4TU-5 | 2026-09-03 05:46:59 | 44.18958 | 22.72339 | 98° | 42km/h | 11209m | 6.3m/s | -51.1°C | 20.0% | 0hPa | 0V | 00:00:00 | 00:00:00 | 00:00:00 | |
| LZ4TU-5 | 2026-09-03 05:46:54 | 44.18953 | 22.72258 | 81° | 64km/h | 11182m | 5.8m/s | -51.2°C | 20.8% | 0hPa | 0V | 00:00:00 | 00:00:00 | 00:00:00 | |
| LZ4TU-5 | 2026-09-03 05:46:50 | 44.18947 | 22.72165 | 94° | 53km/h | 11166m | 2.9m/s | -51.1°C | 21.5% | 0hPa | 0V | 00:00:00 | 00:00:00 | 00:00:00 | |
| LZ4TU-5 | 2026-09-03 05:42:33 | 44.18484 | 22.66869 | 63° | 68km/h | 9617m | 5.0m/s | -43.7°C | 46.0% | 0hPa | 0V | 00:00:00 | 00:00:00 | 00:00:00 | |
| LZ4TU-5 | 2026-09-03 05:42:29 | 44.18477 | 22.66799 | 113° | 40km/h | 9579m | 8.9m/s | -43.3°C | 45.0% | 0hPa | 0V | 00:00:00 | 00:00:00 | 00:00:00 | |
| LZ4TU-5 | 2026-09-03 05:42:25 | 44.18479 | 22.66735 | 75° | 66km/h | 9548m | 8.4m/s | -43.1°C | 43.7% | 0hPa | 0V | 00:00:00 | 00:00:00 | 00:00:00 | |
| LZ4TU-5 | 2026-09-03 05:42:21 | 44.18465 | 22.66639 | 90° | 53km/h | 9527m | 7.3m/s | -42.8°C | 42.6% | 0hPa | 0V | 00:00:00 | 00:00:00 | 00:00:00 | |
| LZ4TU-5 | 2026-09-03 05:42:16 | 44.18471 | 22.66571 | 85° | 47km/h | 9496m | 6.9m/s | -42.6°C | 41.8% | 0hPa | 0V | 00:00:00 | 00:00:00 | 00:00:00 | |
| LZ4TU-5 | 2026-09-03 05:42:11 | 44.18460 | 22.66502 | 65° | 26km/h | 9459m | 6.2m/s | -42.3°C | 41.3% | 0hPa | 0V | 00:00:00 | 00:00:00 | 00:00:00 | |
| LZ4TU-5 | 2026-09-03 05:40:45 | 44.18521 | 22.64974 | 98° | 46km/h | 8934m | 8.8m/s | -37.7°C | 33.8% | 0hPa | 0V | 00:00:00 | 00:00:00 | 00:00:00 | |
| LZ4TU-5 | 2026-09-03 05:40:41 | 44.18519 | 22.64882 | 84° | 66km/h | 8910m | 3.1m/s | -37.4°C | 31.8% | 0hPa | 0V | 00:00:00 | 00:00:00 | 00:00:00 | |
| LZ4TU-5 | 2026-09-03 05:39:15 | 44.18890 | 22.63528 | 103° | 53km/h | 8387m | 6.8m/s | -33.2°C | 22.0% | 0hPa | 0V | 00:00:00 | 00:00:00 | 00:00:00 | |
| LZ4TU-5 | 2026-09-03 05:39:10 | 44.18902 | 22.63460 | 136° | 33km/h | 8361m | 5.3m/s | -32.9°C | 22.1% | 0hPa | 0V | 00:00:00 | 00:00:00 | 00:00:00 | |
| LZ4TU-5 | 2026-09-03 05:37:52 | 44.19269 | 22.62414 | 107° | 33km/h | 7900m | 7.8m/s | -29.0°C | 16.9% | 0hPa | 0V | 00:00:00 | 00:00:00 | 00:00:00 | |
| LZ4TU-5 | 2026-09-03 05:37:47 | 44.19266 | 22.62356 | 109° | 35km/h | 7876m | 6.8m/s | -28.8°C | 16.8% | 0hPa | 0V | 00:00:00 | 00:00:00 | 00:00:00 | |
| LZ4TU-5 | 2026-09-03 05:36:27 | 44.19580 | 22.61434 | 51° | 15km/h | 7438m | 4.9m/s | -25.9°C | 26.9% | 0hPa | 0V | 00:00:00 | 00:00:00 | 00:00:00 | |
| LZ4TU-5 | 2026-09-03 05:36:22 | 44.19583 | 22.61384 | 122° | 49km/h | 7411m | 7.0m/s | -25.7°C | 28.1% | 0hPa | 0V | 00:00:00 | 00:00:00 | 00:00:00 | |
| LZ4TU-5 | 2026-09-03 05:35:08 | 44.19995 | 22.60686 | 139° | 62km/h | 6990m | 8.2m/s | -22.9°C | 33.9% | 0hPa | 0V | 00:00:00 | 00:00:00 | 00:00:00 | |
| LZ4TU-5 | 2026-09-03 05:35:03 | 44.20043 | 22.60632 | 106° | 37km/h | 6957m | 6.3m/s | -22.8°C | 0% | 0hPa | 0V | 00:00:00 | 00:00:00 | 00:00:00 | |
| LZ4TU-5 | 2026-09-03 05:33:49 | 44.20450 | 22.59943 | 90° | 42km/h | 6519m | 3.7m/s | -19.9°C | 40.0% | 0hPa | 0V | 00:00:00 | 00:00:00 | 00:00:00 | |
| LZ4TU-5 | 2026-09-03 05:33:44 | 44.20444 | 22.59886 | 124° | 20km/h | 6496m | 6.2m/s | -19.7°C | 38.5% | 0hPa | 0V | 00:00:00 | 00:00:00 | 00:00:00 | |
| LZ4TU-5 | 2026-09-03 05:32:28 | 44.20856 | 22.59152 | 140° | 58km/h | 6036m | 5.4m/s | -15.9°C | 44.4% | 0hPa | 0V | 00:00:00 | 00:00:00 | 00:00:00 | |
| LZ4TU-5 | 2026-09-03 05:32:23 | 44.20876 | 22.59070 | 89° | 27km/h | 6002m | 6.9m/s | -15.6°C | 41.9% | 0hPa | 0V | 00:00:00 | 00:00:00 | 00:00:00 | |
| LZ4TU-5 | 2026-09-03 05:31:09 | 44.21311 | 22.58249 | 135° | 57km/h | 5550m | 4.8m/s | -12.5°C | 22.5% | 0hPa | 0V | 00:00:00 | 00:00:00 | 00:00:00 | |
| LZ4TU-5 | 2026-09-03 05:31:05 | 44.21336 | 22.58202 | 100° | 26km/h | 5527m | 5.6m/s | -12.4°C | 0% | 0hPa | 0V | 00:00:00 | 00:00:00 | 00:00:00 | |
| LZ4TU-5 | 2026-09-03 05:29:22 | 44.21811 | 22.57246 | 172° | 26km/h | 4913m | 4.9m/s | -8.8°C | 35.5% | 0hPa | 0V | 00:00:00 | 00:00:00 | 00:00:00 | |
| LZ4TU-5 | 2026-09-03 05:29:18 | 44.21811 | 22.57231 | 64° | 29km/h | 4890m | 5.5m/s | -8.7°C | 35.6% | 0hPa | 0V | 00:00:00 | 00:00:00 | 00:00:00 | |
| LZ4TU-5 | 2026-09-03 05:29:13 | 44.21808 | 22.57191 | 159° | 24km/h | 4861m | 5.5m/s | -8.7°C | 38.9% | 0hPa | 0V | 00:00:00 | 00:00:00 | 00:00:00 | |
| LZ4TU-5 | 2026-09-03 05:28:05 | 44.21959 | 22.56836 | 150° | 33km/h | 4468m | 4.9m/s | -5.6°C | 34.8% | 0hPa | 0V | 00:00:00 | 00:00:00 | 00:00:00 | |
| LZ4TU-5 | 2026-09-03 05:28:00 | 44.21965 | 22.56835 | 44° | 11km/h | 4441m | 4.7m/s | -5.3°C | 34.2% | 0hPa | 0V | 00:00:00 | 00:00:00 | 00:00:00 | |
| LZ4TU-5 | 2026-09-03 05:26:59 | 44.22069 | 22.56547 | 187° | 11km/h | 4098m | 6.2m/s | -2.4°C | 31.1% | 0hPa | 0V | 00:00:00 | 00:00:00 | 00:00:00 | |
| LZ4TU-5 | 2026-09-03 05:26:55 | 44.22067 | 22.56539 | 101° | 22km/h | 4076m | 5.2m/s | -2.3°C | 30.9% | 0hPa | 0V | 00:00:00 | 00:00:00 | 00:00:00 | |
| LZ4TU-5 | 2026-09-03 05:25:48 | 44.22173 | 22.56339 | 87° | 26km/h | 3687m | 6.8m/s | -0.0°C | 49.6% | 0hPa | 0V | 00:00:00 | 00:00:00 | 00:00:00 | |
| LZ4TU-5 | 2026-09-03 05:25:43 | 44.22191 | 22.56312 | 163° | 31km/h | 3659m | 3.8m/s | 0.3°C | 48.2% | 0hPa | 0V | 00:00:00 | 00:00:00 | 00:00:00 | |
| LZ4TU-5 | 2026-09-03 05:24:42 | 44.22364 | 22.56088 | 125° | 24km/h | 3319m | 6.2m/s | 2.8°C | 43.1% | 0hPa | 0V | 00:00:00 | 00:00:00 | 00:00:00 | |
| LZ4TU-5 | 2026-09-03 05:24:37 | 44.22371 | 22.56069 | 159° | 26km/h | 3289m | 5.6m/s | 3.0°C | 0% | 0hPa | 0V | 00:00:00 | 00:00:00 | 00:00:00 | |
| LZ4TU-5 | 2026-09-03 05:23:37 | 44.22539 | 22.55677 | 155° | 33km/h | 2959m | 5.5m/s | 5.7°C | 39.4% | 0hPa | 0V | 00:00:00 | 00:00:00 | 00:00:00 | |
| LZ4TU-5 | 2026-09-03 05:23:32 | 44.22556 | 22.55656 | 106° | 29km/h | 2931m | 5.0m/s | 6.0°C | 40.6% | 0hPa | 0V | 00:00:00 | 00:00:00 | 00:00:00 | |
| LZ4TU-5 | 2026-09-03 05:22:31 | 44.22628 | 22.55181 | 110° | 26km/h | 2591m | 5.1m/s | 8.4°C | 29.8% | 0hPa | 0V | 00:00:00 | 00:00:00 | 00:00:00 | |
| LZ4TU-5 | 2026-09-03 05:22:26 | 44.22621 | 22.55141 | 88° | 27km/h | 2565m | 5.5m/s | 8.6°C | 0% | 0hPa | 0V | 00:00:00 | 00:00:00 | 00:00:00 | |
| LZ4TU-5 | 2026-09-03 05:21:24 | 44.22682 | 22.54747 | 130° | 9km/h | 2238m | 4.8m/s | 10.6°C | 32.2% | 0hPa | 0V | 00:00:00 | 00:00:00 | 00:00:00 | |
| LZ4TU-5 | 2026-09-03 05:21:19 | 44.22702 | 22.54692 | 111° | 38km/h | 2213m | 4.1m/s | 10.8°C | 32.3% | 0hPa | 0V | 00:00:00 | 00:00:00 | 00:00:00 | |
| LZ4TU-5 | 2026-09-03 05:20:21 | 44.22878 | 22.54230 | 148° | 38km/h | 1907m | 6.9m/s | 13.0°C | 33.1% | 0hPa | 0V | 00:00:00 | 00:00:00 | 00:00:00 | |
| LZ4TU-5 | 2026-09-03 05:20:17 | 44.22901 | 22.54185 | 101° | 33km/h | 1884m | 5.4m/s | 13.2°C | 31.6% | 0hPa | 0V | 00:00:00 | 00:00:00 | 00:00:00 | |
| LZ4TU-5 | 2026-09-03 05:20:13 | 44.22908 | 22.54168 | 161° | 22km/h | 1865m | 4.8m/s | 13.3°C | 32.1% | 0hPa | 0V | 00:00:00 | 00:00:00 | 00:00:00 | |
| LZ4TU-5 | 2026-09-03 05:20:08 | 44.22949 | 22.54114 | 120° | 51km/h | 1839m | 4.5m/s | 13.5°C | 0% | 0hPa | 0V | 00:00:00 | 00:00:00 | 00:00:00 | |
| LZ4TU-5 | 2026-09-03 05:19:07 | 44.23282 | 22.53697 | 120° | 35km/h | 1504m | 4.5m/s | 15.2°C | 40.5% | 0hPa | 0V | 00:00:00 | 00:00:00 | 00:00:00 | |
| LZ4TU-5 | 2026-09-03 05:19:03 | 44.23291 | 22.53678 | 192° | 15km/h | 1485m | 5.2m/s | 15.4°C | 40.2% | 0hPa | 0V | 00:00:00 | 00:00:00 | 00:00:00 | |
| LZ4TU-5 | 2026-09-03 05:17:53 | 44.23682 | 22.53473 | 202° | 11km/h | 1093m | 5.8m/s | 17.8°C | 42.8% | 0hPa | 0V | 00:00:00 | 00:00:00 | 00:00:00 | |
| LZ4TU-5 | 2026-09-03 05:17:48 | 44.23709 | 22.53476 | 147° | 27km/h | 1066m | 5.1m/s | 17.7°C | 46.4% | 0hPa | 0V | 00:00:00 | 00:00:00 | 00:00:00 | |
| LZ4TU-5 | 2026-09-03 05:16:47 | 44.23799 | 22.53501 | 55° | 7km/h | 736m | 5.9m/s | 19.4°C | 52.5% | 0hPa | 0V | 00:00:00 | 00:00:00 | 00:00:00 | |
| LZ4TU-5 | 2026-09-03 05:16:26 | 44.23803 | 22.53563 | 155° | 5km/h | 622m | 4.6m/s | 20.2°C | 52.2% | 0hPa | 0V | 00:00:00 | 00:00:00 | 00:00:00 |